Terminal Aerodrome Forecast
Issued by NWS

Home | Current Version | Previous Version | Text Only | Print | Product List | Glossary On
Versions: 1 2 3 4 5 6 7 8 9 10 11 12 13 14 15 16 17 18 19 20 21 22 23 24 25 26 27
687
FTUS43 KLSX 260134 AAA
TAFSUS
TAF AMD
KSUS 260134Z 2602/2624 15008KT P6SM SCT040 BKN080
     FM260600 20006KT P6SM BKN030
     FM261100 22007KT 6SM BR BKN010
     FM261600 23009KT P6SM BKN020
     FM262100 24009KT P6SM BKN035=

USA.gov is the U.S. government's official web portal to all federal, state and local government web resources and services.